createdAt,value
2023-03-02T00:00:36.700Z,100713.41
2023-03-02T00:02:51.109Z,100709.78
2023-03-02T00:03:54.027Z,100716.26
2023-03-02T00:04:59.126Z,100710.56
2023-03-02T00:06:01.986Z,100701.87
2023-03-02T00:07:08.171Z,100718.53
2023-03-02T00:08:16.345Z,100704.03
2023-03-02T00:09:20.075Z,100722.91
2023-03-02T00:10:22.505Z,100712.55
2023-03-02T00:11:27.888Z,100707.38
2023-03-02T00:12:33.278Z,100704.64
2023-03-02T00:13:38.337Z,100697.78
2023-03-02T00:14:43.420Z,100698.61
2023-03-02T00:15:45.900Z,100698.05
2023-03-02T00:16:49.696Z,100706.67
2023-03-02T00:17:52.053Z,100702.29
2023-03-02T00:18:56.855Z,100699.25
2023-03-02T00:20:01.468Z,100705.72
2023-03-02T00:21:04.077Z,100700.44
2023-03-02T00:22:07.833Z,100699.51
2023-03-02T00:23:12.601Z,100693.44
2023-03-02T00:24:16.204Z,100698.83
2023-03-02T00:25:19.830Z,100690.03
2023-03-02T00:26:23.234Z,100700.55
2023-03-02T00:27:27.773Z,100686.98
2023-03-02T00:28:32.263Z,100691.18
2023-03-02T00:29:35.816Z,100693.84
2023-03-02T00:30:40.939Z,100689.67
2023-03-02T00:31:44.598Z,100691.22
2023-03-02T00:32:46.963Z,100695.63
2023-03-02T00:33:54.112Z,100691.63
2023-03-02T00:34:57.948Z,100691.60
2023-03-02T00:36:00.973Z,100686.50
2023-03-02T00:37:04.644Z,100684.05
2023-03-02T00:38:08.713Z,100689.09
2023-03-02T00:39:11.132Z,100678.92
2023-03-02T00:40:15.470Z,100679.64
2023-03-02T00:41:20.631Z,100675.61
2023-03-02T00:42:27.608Z,100680.98
2023-03-02T00:43:31.439Z,100676.70
2023-03-02T00:44:34.808Z,100676.44
2023-03-02T00:45:38.217Z,100673.69
2023-03-02T00:46:41.775Z,100668.55
2023-03-02T00:47:45.555Z,100676.30
2023-03-02T00:48:49.142Z,100672.13
2023-03-02T00:49:52.654Z,100674.09
2023-03-02T00:50:55.012Z,100678.42
2023-03-02T00:51:59.458Z,100673.78
2023-03-02T00:53:03.056Z,100670.41
2023-03-02T00:54:06.894Z,100678.33
2023-03-02T00:56:14.002Z,100667.75
2023-03-02T00:57:19.212Z,100669.51
2023-03-02T00:58:23.089Z,100672.85
2023-03-02T00:59:27.648Z,100667.55
2023-03-02T01:00:40.552Z,100676.09
2023-03-02T01:01:44.466Z,100674.23
2023-03-02T01:02:49.364Z,100684.70
2023-03-02T01:03:53.983Z,100678.67
2023-03-02T01:04:56.456Z,100684.16
2023-03-02T01:06:04.016Z,100677.95
2023-03-02T01:07:11.171Z,100686.81
2023-03-02T01:08:19.295Z,100679.45
2023-03-02T01:09:23.762Z,100681.88
2023-03-02T01:10:29.324Z,100681.08
2023-03-02T01:11:32.655Z,100684.52
2023-03-02T01:12:36.206Z,100679.28
2023-03-02T01:13:38.598Z,100681.61
2023-03-02T01:14:44.613Z,100683.22
2023-03-02T01:15:51.297Z,100676.57
2023-03-02T01:16:54.864Z,100675.40
2023-03-02T01:17:57.448Z,100672.13
2023-03-02T01:19:01.585Z,100666.45
2023-03-02T01:20:06.460Z,100676.35
2023-03-02T01:21:13.047Z,100678.39
2023-03-02T01:22:22.360Z,100673.30
2023-03-02T01:23:25.806Z,100670.50
2023-03-02T01:24:29.785Z,100678.82
2023-03-02T01:25:34.391Z,100668.88
2023-03-02T01:26:38.495Z,100671.58
2023-03-02T01:27:41.219Z,100668.38
2023-03-02T01:28:45.562Z,100665.80
2023-03-02T01:29:51.558Z,100665.33
2023-03-02T01:30:55.154Z,100660.11
2023-03-02T01:32:02.111Z,100665.95
2023-03-02T01:33:07.568Z,100665.16
2023-03-02T01:34:11.993Z,100668.38
2023-03-02T01:35:15.442Z,100662.02
2023-03-02T01:36:18.840Z,100664.54
2023-03-02T01:37:24.528Z,100662.19
2023-03-02T01:38:28.229Z,100656.78
2023-03-02T01:39:31.745Z,100661.95
2023-03-02T01:40:34.206Z,100656.66
2023-03-02T01:41:36.485Z,100651.84
2023-03-02T01:42:41.320Z,100651.78
2023-03-02T01:43:46.601Z,100645.62
2023-03-02T01:44:52.311Z,100643.93
2023-03-02T01:45:57.787Z,100653.80
2023-03-02T01:47:14.454Z,100646.84
2023-03-02T01:48:25.998Z,100646.73
2023-03-02T01:49:33.273Z,100652.11
2023-03-02T01:50:37.294Z,100644.85
2023-03-02T01:51:41.545Z,100644.85
2023-03-02T01:52:45.240Z,100642.36
2023-03-02T01:53:51.218Z,100644.91
2023-03-02T01:54:58.096Z,100645.86
2023-03-02T01:56:03.080Z,100641.41
2023-03-02T01:57:08.557Z,100643.84
2023-03-02T01:58:13.235Z,100644.64
2023-03-02T01:59:18.289Z,100649.96
2023-03-02T02:00:25.594Z,100654.81
2023-03-02T02:01:32.511Z,100648.45
2023-03-02T02:02:36.590Z,100645.75
2023-03-02T02:03:39.138Z,100651.90
2023-03-02T02:04:46.345Z,100650.88
2023-03-02T02:05:51.899Z,100653.63
2023-03-02T02:06:59.444Z,100659.83
2023-03-02T02:08:03.259Z,100647.80
2023-03-02T02:09:11.665Z,100646.70
2023-03-02T02:10:15.586Z,100645.06
2023-03-02T02:11:18.784Z,100649.41
2023-03-02T02:12:23.159Z,100646.76
2023-03-02T02:13:27.572Z,100656.41
2023-03-02T02:14:31.006Z,100652.91
2023-03-02T02:15:34.677Z,100647.62
2023-03-02T02:16:37.571Z,100653.98
2023-03-02T02:17:41.071Z,100656.44
2023-03-02T02:18:45.293Z,100654.84
2023-03-02T02:19:52.261Z,100655.81
2023-03-02T02:20:55.961Z,100650.67
2023-03-02T02:21:59.475Z,100666.30
2023-03-02T02:23:19.992Z,100660.24
2023-03-02T02:24:26.642Z,100661.94
2023-03-02T02:25:37.446Z,100661.94
2023-03-02T02:26:52.144Z,100654.13
2023-03-02T02:27:56.684Z,100658.64
2023-03-02T02:29:03.434Z,100661.33
2023-03-02T02:30:08.016Z,100665.39
2023-03-02T02:31:15.209Z,100663.63
2023-03-02T02:32:20.723Z,100651.36
2023-03-02T02:33:25.853Z,100658.38
2023-03-02T02:34:34.490Z,100660.16
2023-03-02T02:35:38.983Z,100659.38
2023-03-02T02:36:44.783Z,100653.27
2023-03-02T02:37:55.493Z,100657.55
2023-03-02T02:39:01.934Z,100658.41
2023-03-02T02:40:10.545Z,100652.28
2023-03-02T02:41:15.935Z,100653.41
2023-03-02T02:42:22.048Z,100657.83
2023-03-02T02:43:27.215Z,100651.69
2023-03-02T02:44:33.369Z,100659.55
2023-03-02T02:45:36.847Z,100653.29
2023-03-02T02:46:40.140Z,100660.24
2023-03-02T02:47:45.590Z,100653.23
2023-03-02T02:48:49.241Z,100649.91
2023-03-02T02:49:56.494Z,100652.42
2023-03-02T02:51:03.727Z,100647.20
2023-03-02T02:52:07.809Z,100650.64
2023-03-02T02:53:14.015Z,100656.59
2023-03-02T02:54:22.180Z,100648.87
2023-03-02T02:55:27.406Z,100647.11
2023-03-02T02:56:33.000Z,100655.81
2023-03-02T02:57:36.800Z,100651.48
2023-03-02T02:58:44.911Z,100652.40
2023-03-02T02:59:49.036Z,100656.66
2023-03-02T03:00:53.520Z,100654.72
2023-03-02T03:01:59.381Z,100652.94
2023-03-02T03:03:04.531Z,100652.23
2023-03-02T03:04:07.456Z,100656.66
2023-03-02T03:05:15.175Z,100655.88
2023-03-02T03:06:21.761Z,100651.51
2023-03-02T03:07:26.624Z,100658.49
2023-03-02T03:08:47.061Z,100655.05
2023-03-02T03:09:57.411Z,100649.12
2023-03-02T03:11:01.596Z,100650.87
2023-03-02T03:12:08.023Z,100655.30
2023-03-02T03:13:14.331Z,100656.22
2023-03-02T03:14:19.131Z,100646.56
2023-03-02T03:15:24.068Z,100653.66
2023-03-02T03:16:28.637Z,100651.85
2023-03-02T03:17:32.131Z,100653.52
2023-03-02T03:18:37.301Z,100645.05
2023-03-02T03:19:42.296Z,100648.58
2023-03-02T03:20:45.452Z,100650.13
2023-03-02T03:21:51.469Z,100655.36
2023-03-02T03:22:55.497Z,100650.27
2023-03-02T03:23:58.784Z,100647.80
2023-03-02T03:25:03.678Z,100648.82
2023-03-02T03:26:06.856Z,100651.38
2023-03-02T03:27:11.098Z,100646.02
2023-03-02T03:28:16.049Z,100653.91
2023-03-02T03:29:19.867Z,100651.38
2023-03-02T03:30:27.235Z,100651.27
2023-03-02T03:31:31.069Z,100652.05
2023-03-02T03:32:36.217Z,100639.77
2023-03-02T03:33:39.930Z,100644.73
2023-03-02T03:34:43.609Z,100642.95
2023-03-02T03:35:48.733Z,100641.20
2023-03-02T03:36:52.171Z,100644.67
2023-03-02T03:37:55.858Z,100643.01
2023-03-02T03:39:01.383Z,100641.28
2023-03-02T03:40:07.097Z,100645.70
2023-03-02T03:41:11.164Z,100647.41
2023-03-02T03:42:14.837Z,100643.90
2023-03-02T03:43:18.632Z,100648.47
2023-03-02T03:44:24.249Z,100645.09
2023-03-02T03:45:30.475Z,100645.77
2023-03-02T03:46:34.196Z,100642.12
2023-03-02T03:47:39.009Z,100645.88
2023-03-02T03:48:43.141Z,100641.56
2023-03-02T03:49:46.446Z,100641.63
2023-03-02T03:50:49.964Z,100636.23
2023-03-02T03:51:54.049Z,100638.67
2023-03-02T03:52:58.813Z,100639.45
2023-03-02T03:54:03.753Z,100631.63
2023-03-02T03:55:09.243Z,100635.11
2023-03-02T03:56:12.617Z,100638.70
2023-03-02T03:57:17.735Z,100641.40
2023-03-02T03:58:22.204Z,100637.98
2023-03-02T03:59:25.957Z,100645.88
2023-03-02T04:00:31.104Z,100637.06
2023-03-02T04:01:37.590Z,100644.91
2023-03-02T04:02:42.740Z,100632.66
2023-03-02T04:03:46.872Z,100640.51
2023-03-02T04:04:50.383Z,100638.84
2023-03-02T04:05:54.271Z,100639.90
2023-03-02T04:06:57.896Z,100646.84
2023-03-02T04:08:03.447Z,100636.34
2023-03-02T04:09:08.203Z,100641.52
2023-03-02T04:10:16.085Z,100641.65
2023-03-02T04:11:20.969Z,100634.03
2023-03-02T04:12:24.026Z,100635.89
2023-03-02T04:13:28.836Z,100633.92
2023-03-02T04:14:34.347Z,100635.59
2023-03-02T04:15:38.620Z,100635.78
2023-03-02T04:16:44.460Z,100628.88
2023-03-02T04:17:48.001Z,100626.22
2023-03-02T04:18:53.310Z,100634.92
2023-03-02T04:19:56.134Z,100627.91
2023-03-02T04:21:01.113Z,100629.70
2023-03-02T04:22:04.878Z,100628.73
2023-03-02T04:23:09.114Z,100629.53
2023-03-02T04:24:12.722Z,100621.75
2023-03-02T04:25:22.466Z,100627.70
2023-03-02T04:26:28.203Z,100622.72
2023-03-02T04:27:31.861Z,100621.64
2023-03-02T04:28:37.361Z,100626.14
2023-03-02T04:29:40.389Z,100625.41
2023-03-02T04:30:47.611Z,100620.80
2023-03-02T04:31:50.834Z,100622.50
2023-03-02T04:32:55.264Z,100626.09
2023-03-02T04:34:01.048Z,100625.16
2023-03-02T04:35:06.345Z,100622.47
2023-03-02T04:36:13.937Z,100626.20
2023-03-02T04:37:16.938Z,100631.98
2023-03-02T04:38:20.146Z,100630.28
2023-03-02T04:39:23.858Z,100634.59
2023-03-02T04:40:31.553Z,100633.95
2023-03-02T04:41:36.395Z,100634.00
2023-03-02T04:42:39.731Z,100635.67
2023-03-02T04:43:43.262Z,100632.95
2023-03-02T04:44:46.417Z,100635.39
2023-03-02T04:45:50.600Z,100629.94
2023-03-02T04:46:53.382Z,100637.00
2023-03-02T04:47:58.519Z,100637.84
2023-03-02T04:49:03.011Z,100630.59
2023-03-02T04:50:05.516Z,100634.10
2023-03-02T04:51:10.663Z,100634.13
2023-03-02T04:52:13.985Z,100635.30
2023-03-02T04:53:20.646Z,100632.66
2023-03-02T04:54:25.683Z,100633.23
2023-03-02T04:55:31.119Z,100637.61
2023-03-02T04:56:34.890Z,100640.28
2023-03-02T04:57:40.102Z,100645.30
2023-03-02T04:58:43.129Z,100638.14
2023-03-02T04:59:46.471Z,100646.70
2023-03-02T05:00:48.751Z,100645.86
2023-03-02T05:01:58.514Z,100646.73
2023-03-02T05:03:01.634Z,100647.70
2023-03-02T05:04:04.950Z,100638.02
2023-03-02T05:05:08.994Z,100646.45
2023-03-02T05:06:12.177Z,100647.19
2023-03-02T05:07:15.254Z,100643.55
2023-03-02T05:08:17.759Z,100647.98
2023-03-02T05:09:24.121Z,100641.44
2023-03-02T05:10:28.854Z,100648.14
2023-03-02T05:11:32.838Z,100657.10
2023-03-02T05:12:39.762Z,100646.64
2023-03-02T05:13:43.040Z,100649.96
2023-03-02T05:14:46.296Z,100649.77
2023-03-02T05:15:51.415Z,100653.92
2023-03-02T05:16:54.385Z,100652.28
2023-03-02T05:17:57.782Z,100660.09
2023-03-02T05:19:03.708Z,100658.73
2023-03-02T05:20:07.662Z,100669.98
2023-03-02T05:21:10.992Z,100670.02
2023-03-02T05:22:14.084Z,100669.33
2023-03-02T05:23:19.794Z,100671.81
2023-03-02T05:24:23.467Z,100667.55
2023-03-02T05:25:27.344Z,100676.70
2023-03-02T05:26:32.208Z,100674.74
2023-03-02T05:27:37.095Z,100676.27
2023-03-02T05:28:40.516Z,100667.70
2023-03-02T05:29:43.729Z,100675.52
2023-03-02T05:30:49.312Z,100672.44
2023-03-02T05:31:51.767Z,100667.65
2023-03-02T05:32:55.301Z,100669.41
2023-03-02T05:33:58.091Z,100672.97
2023-03-02T05:35:01.207Z,100677.91
2023-03-02T05:36:04.460Z,100674.42
2023-03-02T05:37:07.622Z,100675.17
2023-03-02T05:38:11.118Z,100677.28
2023-03-02T05:39:14.391Z,100674.07
2023-03-02T05:40:19.511Z,100675.50
2023-03-02T05:41:21.867Z,100674.52
2023-03-02T05:42:25.179Z,100674.11
2023-03-02T05:43:28.180Z,100672.60
2023-03-02T05:44:31.395Z,100675.66
2023-03-02T05:45:36.038Z,100667.48
2023-03-02T05:46:45.427Z,100669.25
2023-03-02T05:47:50.013Z,100672.17
2023-03-02T05:48:53.342Z,100665.06
2023-03-02T05:49:56.048Z,100671.60
2023-03-02T05:50:59.191Z,100668.16
2023-03-02T05:52:01.849Z,100671.44
2023-03-02T05:53:05.360Z,100675.61
2023-03-02T05:54:08.407Z,100678.47
2023-03-02T05:55:16.452Z,100682.42
2023-03-02T05:56:20.571Z,100683.28
2023-03-02T05:57:24.568Z,100689.14
2023-03-02T05:58:28.203Z,100697.02
2023-03-02T05:59:32.609Z,100702.56
2023-03-02T06:00:35.726Z,100703.53
2023-03-02T06:01:40.158Z,100718.75
2023-03-02T06:02:46.056Z,100713.55
2023-03-02T06:03:49.469Z,100722.00
2023-03-02T06:04:52.688Z,100726.77
2023-03-02T06:05:55.162Z,100724.00
2023-03-02T06:06:58.112Z,100729.97
2023-03-02T06:08:01.598Z,100716.61
2023-03-02T06:09:04.789Z,100714.56
2023-03-02T06:10:08.288Z,100712.03
2023-03-02T06:11:11.765Z,100708.89
2023-03-02T06:12:14.993Z,100710.78
2023-03-02T06:13:17.538Z,100708.58
2023-03-02T06:14:21.408Z,100698.10
2023-03-02T06:15:24.718Z,100701.66
2023-03-02T06:16:27.888Z,100705.63
2023-03-02T06:17:30.163Z,100705.26
2023-03-02T06:18:35.201Z,100704.14
2023-03-02T06:19:40.473Z,100710.09
2023-03-02T06:20:43.202Z,100696.50
2023-03-02T06:21:46.260Z,100698.70
2023-03-02T06:22:49.753Z,100705.88
2023-03-02T06:23:53.311Z,100710.61
2023-03-02T06:24:56.625Z,100701.09
2023-03-02T06:26:08.504Z,100707.77
2023-03-02T06:27:15.612Z,100704.52
2023-03-02T06:28:22.406Z,100709.73
2023-03-02T06:29:25.711Z,100701.96
2023-03-02T06:30:28.939Z,100706.59
2023-03-02T06:31:31.684Z,100704.53
2023-03-02T06:32:34.887Z,100711.39
2023-03-02T06:33:37.732Z,100702.29
2023-03-02T06:34:41.192Z,100718.44
2023-03-02T06:35:44.268Z,100706.94
2023-03-02T06:36:47.398Z,100704.20
2023-03-02T06:37:50.875Z,100710.14
2023-03-02T06:38:55.171Z,100706.14
2023-03-02T06:39:58.574Z,100703.67
2023-03-02T06:41:01.743Z,100707.91
2023-03-02T06:42:04.898Z,100707.00
2023-03-02T06:43:08.479Z,100702.40
2023-03-02T06:44:11.913Z,100711.65
2023-03-02T06:45:15.159Z,100711.75
2023-03-02T06:46:18.209Z,100704.18
2023-03-02T06:47:22.750Z,100707.83
2023-03-02T06:48:25.279Z,100707.45
2023-03-02T06:49:27.563Z,100717.76
2023-03-02T06:50:31.437Z,100708.92
2023-03-02T06:51:34.091Z,100704.19
2023-03-02T06:52:37.627Z,100704.05
2023-03-02T06:53:41.030Z,100714.78
2023-03-02T06:54:43.794Z,100718.66
2023-03-02T06:55:50.687Z,100719.81
2023-03-02T06:56:53.841Z,100723.98
2023-03-02T06:57:56.948Z,100719.48
2023-03-02T06:58:59.408Z,100723.95
2023-03-02T07:00:06.032Z,100727.69
2023-03-02T07:01:08.700Z,100728.27
2023-03-02T07:02:14.957Z,100740.55
2023-03-02T07:03:19.990Z,100733.78
2023-03-02T07:04:24.837Z,100746.13
2023-03-02T07:05:27.664Z,100743.09
2023-03-02T07:06:31.077Z,100747.70
2023-03-02T07:07:36.638Z,100750.75
2023-03-02T07:08:40.290Z,100752.16
2023-03-02T07:09:42.538Z,100750.95
2023-03-02T07:10:49.018Z,100746.77
2023-03-02T07:11:52.210Z,100746.69
2023-03-02T07:12:54.917Z,100754.27
2023-03-02T07:14:00.132Z,100750.44
2023-03-02T07:15:03.413Z,100763.30
2023-03-02T07:16:10.450Z,100764.10
2023-03-02T07:17:14.087Z,100768.15
2023-03-02T07:18:17.345Z,100782.72
2023-03-02T07:19:20.508Z,100785.08
2023-03-02T07:20:23.785Z,100798.16
2023-03-02T07:21:27.236Z,100798.60
2023-03-02T07:22:30.105Z,100797.18
2023-03-02T07:23:33.605Z,100793.64
2023-03-02T07:24:35.919Z,100785.56
2023-03-02T07:25:39.932Z,100794.88
2023-03-02T07:26:46.208Z,100788.38
2023-03-02T07:27:51.285Z,100793.31
2023-03-02T07:28:54.773Z,100792.19
2023-03-02T07:29:59.573Z,100797.41
2023-03-02T07:31:02.691Z,100800.08
2023-03-02T07:32:10.145Z,100796.05
2023-03-02T07:33:13.132Z,100789.83
2023-03-02T07:34:16.066Z,100797.91
2023-03-02T07:35:19.309Z,100800.75
2023-03-02T07:36:22.224Z,100798.80
2023-03-02T07:37:24.799Z,100804.50
2023-03-02T07:38:27.916Z,100795.53
2023-03-02T07:39:30.565Z,100794.80
2023-03-02T07:40:35.313Z,100795.97
2023-03-02T07:41:38.647Z,100795.53
2023-03-02T07:42:42.033Z,100794.65
2023-03-02T07:43:45.475Z,100796.77
2023-03-02T07:44:47.747Z,100796.50
2023-03-02T07:45:51.245Z,100794.52
2023-03-02T07:46:53.586Z,100784.52
2023-03-02T07:48:00.386Z,100798.73
2023-03-02T07:49:03.628Z,100798.39
2023-03-02T07:50:10.087Z,100804.11
2023-03-02T07:51:13.298Z,100800.05
2023-03-02T07:52:16.566Z,100804.42
2023-03-02T07:53:19.638Z,100802.08
2023-03-02T07:54:22.732Z,100799.66
2023-03-02T07:55:26.160Z,100794.05
2023-03-02T07:56:29.700Z,100797.58
2023-03-02T07:57:34.798Z,100796.82
2023-03-02T07:58:38.262Z,100786.83
2023-03-02T07:59:40.508Z,100781.61
2023-03-02T08:00:46.687Z,100781.79
2023-03-02T08:01:50.021Z,100788.62
2023-03-02T08:02:53.063Z,100778.59
2023-03-02T08:03:55.708Z,100781.73
2023-03-02T08:05:01.221Z,100774.94
2023-03-02T08:06:07.321Z,100777.22
2023-03-02T08:07:09.517Z,100778.33
2023-03-02T08:08:12.072Z,100778.03
2023-03-02T08:09:16.944Z,100778.15
2023-03-02T08:10:20.573Z,100782.97
2023-03-02T08:11:24.629Z,100774.58
2023-03-02T08:12:28.667Z,100765.34
2023-03-02T08:13:31.902Z,100772.36
2023-03-02T08:14:34.530Z,100771.74
2023-03-02T08:15:37.188Z,100767.25
2023-03-02T08:16:40.962Z,100777.05
2023-03-02T08:17:44.125Z,100778.42
2023-03-02T08:18:47.400Z,100778.55
2023-03-02T08:19:50.288Z,100779.76
2023-03-02T08:20:53.948Z,100780.28
2023-03-02T08:21:56.453Z,100775.95
2023-03-02T08:22:58.717Z,100781.11
2023-03-02T08:24:05.777Z,100774.50
2023-03-02T08:25:09.162Z,100783.13
2023-03-02T08:26:14.275Z,100778.16
2023-03-02T08:27:17.251Z,100775.62
2023-03-02T08:28:20.780Z,100784.48
2023-03-02T08:29:24.056Z,100785.72
2023-03-02T08:30:27.849Z,100778.16
2023-03-02T08:31:34.663Z,100777.05
2023-03-02T08:32:38.252Z,100784.19
2023-03-02T08:33:41.531Z,100774.45
2023-03-02T08:34:43.728Z,100769.81
2023-03-02T08:35:48.039Z,100781.81
2023-03-02T08:36:51.302Z,100769.86
2023-03-02T08:37:56.231Z,100771.09
2023-03-02T08:39:01.455Z,100774.79
2023-03-02T08:40:04.892Z,100773.72
2023-03-02T08:41:09.198Z,100767.03
2023-03-02T08:42:11.503Z,100770.88
2023-03-02T08:43:15.789Z,100765.06
2023-03-02T08:44:19.081Z,100758.30
2023-03-02T08:45:22.250Z,100758.70
2023-03-02T08:46:25.500Z,100753.21
2023-03-02T08:47:28.900Z,100755.90
2023-03-02T08:48:33.583Z,100754.50
2023-03-02T08:49:37.456Z,100754.22
2023-03-02T08:50:40.817Z,100755.33
2023-03-02T08:51:44.192Z,100755.86
2023-03-02T08:52:47.837Z,100754.24
2023-03-02T08:53:51.815Z,100755.02
2023-03-02T08:54:54.082Z,100753.99
2023-03-02T08:55:57.335Z,100749.53
2023-03-02T08:57:02.830Z,100751.75
2023-03-02T08:58:06.153Z,100751.16
2023-03-02T08:59:10.780Z,100741.43
2023-03-02T09:00:16.744Z,100742.64
2023-03-02T09:01:20.828Z,100738.05
2023-03-02T09:02:24.386Z,100748.36
2023-03-02T09:03:27.629Z,100743.12
2023-03-02T09:04:31.057Z,100735.84
2023-03-02T09:05:34.294Z,100736.94
2023-03-02T09:06:38.336Z,100725.30
2023-03-02T09:07:41.424Z,100724.54
2023-03-02T09:08:45.724Z,100725.23
2023-03-02T09:09:51.075Z,100727.63
2023-03-02T09:10:54.283Z,100732.96
2023-03-02T09:11:58.124Z,100717.52
2023-03-02T09:13:01.368Z,100731.15
2023-03-02T09:14:05.722Z,100725.06
2023-03-02T09:15:09.144Z,100719.57
2023-03-02T09:16:12.354Z,100724.86
2023-03-02T09:17:18.418Z,100714.33
2023-03-02T09:18:22.172Z,100715.84
2023-03-02T09:19:25.269Z,100708.72
2023-03-02T09:20:28.988Z,100711.50
2023-03-02T09:21:32.495Z,100715.41
2023-03-02T09:22:36.419Z,100715.84
2023-03-02T09:23:39.640Z,100712.58
2023-03-02T09:24:42.630Z,100719.09
2023-03-02T09:25:48.892Z,100713.36
2023-03-02T09:26:51.109Z,100711.19
2023-03-02T09:27:55.494Z,100707.84
2023-03-02T09:28:58.890Z,100717.34
2023-03-02T09:30:04.964Z,100707.34
2023-03-02T09:31:09.157Z,100718.09
2023-03-02T09:32:16.394Z,100705.08
2023-03-02T09:33:20.209Z,100711.67
2023-03-02T09:34:25.850Z,100702.61
2023-03-02T09:35:30.143Z,100700.63
2023-03-02T09:36:33.928Z,100706.80
2023-03-02T09:37:39.186Z,100707.95
2023-03-02T09:38:43.249Z,100705.41
2023-03-02T09:39:46.899Z,100705.09
2023-03-02T09:40:52.124Z,100698.91
2023-03-02T09:42:11.829Z,100702.21
2023-03-02T09:43:24.852Z,100704.13
2023-03-02T09:44:32.017Z,100697.39
2023-03-02T09:45:53.622Z,100708.08
2023-03-02T09:46:59.937Z,100712.12
2023-03-02T09:48:06.332Z,100706.26
2023-03-02T09:49:13.232Z,100704.84
2023-03-02T09:50:24.061Z,100710.31
2023-03-02T09:51:47.560Z,100706.50
2023-03-02T09:52:58.556Z,100703.98
2023-03-02T09:54:06.406Z,100698.75
2023-03-02T09:55:10.520Z,100701.95
2023-03-02T09:56:15.664Z,100700.09
2023-03-02T09:57:22.656Z,100697.59
2023-03-02T09:58:26.777Z,100706.54
2023-03-02T09:59:42.085Z,100706.14
2023-03-02T10:00:47.142Z,100709.44
2023-03-02T10:01:54.835Z,100700.33
2023-03-02T10:03:11.423Z,100695.63
2023-03-02T10:04:05.821Z,100700.77
2023-03-02T10:05:13.279Z,100694.77
2023-03-02T10:06:17.614Z,100694.71
2023-03-02T10:07:22.320Z,100688.85
2023-03-02T10:08:27.480Z,100694.08
2023-03-02T10:09:30.744Z,100685.88
2023-03-02T10:10:34.849Z,100684.52
2023-03-02T10:11:40.830Z,100682.25
2023-03-02T10:13:00.925Z,100688.14
2023-03-02T10:14:05.411Z,100687.27
2023-03-02T10:15:10.698Z,100680.27
2023-03-02T10:16:14.783Z,100675.00
2023-03-02T10:17:20.806Z,100682.66
2023-03-02T10:18:25.463Z,100684.37
2023-03-02T10:19:31.368Z,100681.26
2023-03-02T10:20:40.129Z,100682.05
2023-03-02T10:21:47.700Z,100678.11
2023-03-02T10:22:52.424Z,100682.66
2023-03-02T10:24:16.170Z,100681.42
2023-03-02T10:25:39.934Z,100670.87
2023-03-02T10:26:44.808Z,100673.53
2023-03-02T10:27:49.062Z,100676.72
2023-03-02T10:28:57.447Z,100672.84
2023-03-02T10:30:05.789Z,100677.60
2023-03-02T10:31:10.804Z,100674.84
2023-03-02T10:32:20.814Z,100678.56
2023-03-02T10:33:23.365Z,100674.01
2023-03-02T10:34:29.287Z,100673.56
2023-03-02T10:35:33.354Z,100673.98
2023-03-02T10:36:38.597Z,100670.84
2023-03-02T10:37:41.368Z,100665.50
2023-03-02T10:38:45.884Z,100675.11
2023-03-02T10:39:49.846Z,100669.84
2023-03-02T10:42:20.846Z,100666.80
2023-03-02T10:43:27.125Z,100662.90
2023-03-02T10:44:43.305Z,100661.51
2023-03-02T10:45:51.702Z,100674.59
2023-03-02T10:46:57.020Z,100661.02
2023-03-02T10:48:01.720Z,100667.58
2023-03-02T10:49:04.189Z,100670.97
2023-03-02T10:50:11.209Z,100660.69
2023-03-02T10:51:16.631Z,100662.36
2023-03-02T10:52:25.461Z,100658.13
2023-03-02T10:53:29.697Z,100664.04
2023-03-02T10:54:35.082Z,100666.92
2023-03-02T10:55:39.514Z,100665.64
2023-03-02T10:56:42.621Z,100650.70
2023-03-02T10:57:47.059Z,100653.95
2023-03-02T10:58:51.700Z,100663.03
2023-03-02T10:59:56.890Z,100653.95
2023-03-02T11:01:05.098Z,100650.91
2023-03-02T11:02:12.136Z,100652.80
2023-03-02T11:03:22.446Z,100646.33
2023-03-02T11:04:27.401Z,100650.53
2023-03-02T11:05:33.955Z,100652.72
2023-03-02T11:06:37.348Z,100649.94
2023-03-02T11:07:40.855Z,100642.71
2023-03-02T11:08:45.138Z,100644.66
2023-03-02T11:10:03.591Z,100645.47
2023-03-02T11:11:07.034Z,100644.79
2023-03-02T11:12:15.134Z,100643.03
2023-03-02T11:13:19.399Z,100643.56
2023-03-02T11:14:24.023Z,100643.61
2023-03-02T11:15:36.429Z,100643.87
2023-03-02T11:16:43.812Z,100650.77
2023-03-02T11:17:49.186Z,100650.68
2023-03-02T11:19:05.099Z,100636.06
2023-03-02T11:20:11.532Z,100635.17
2023-03-02T11:21:16.057Z,100633.05
2023-03-02T11:22:29.878Z,100635.72
2023-03-02T11:23:52.227Z,100633.87
2023-03-02T11:24:56.366Z,100632.87
2023-03-02T11:26:02.466Z,100630.46
2023-03-02T11:27:09.949Z,100633.78
2023-03-02T11:28:18.259Z,100641.02
2023-03-02T11:29:22.880Z,100638.38
2023-03-02T11:30:28.831Z,100630.97
2023-03-02T11:31:34.570Z,100632.67
2023-03-02T11:32:44.445Z,100640.27
2023-03-02T11:33:53.213Z,100631.84
2023-03-02T11:34:59.127Z,100629.06
2023-03-02T11:36:10.375Z,100624.22
2023-03-02T11:37:28.772Z,100622.98
2023-03-02T11:38:36.807Z,100625.80
2023-03-02T11:39:49.984Z,100620.24
2023-03-02T11:40:48.192Z,100632.27
2023-03-02T11:41:53.291Z,100624.48
2023-03-02T11:42:56.874Z,100629.70
2023-03-02T11:44:02.992Z,100623.92
2023-03-02T11:45:17.718Z,100616.73
2023-03-02T11:46:26.579Z,100617.32
2023-03-02T11:47:32.003Z,100616.73
2023-03-02T11:48:40.835Z,100619.66
2023-03-02T11:49:48.938Z,100620.06
2023-03-02T11:50:59.550Z,100618.43
2023-03-02T11:52:02.835Z,100619.74
2023-03-02T11:53:08.121Z,100617.17
2023-03-02T11:54:13.223Z,100618.12
2023-03-02T11:55:18.788Z,100616.83
2023-03-02T11:56:22.806Z,100612.81
2023-03-02T11:57:28.129Z,100618.12
2023-03-02T11:58:31.502Z,100615.72
2023-03-02T11:59:38.514Z,100618.95
2023-03-02T12:00:42.886Z,100616.78
2023-03-02T12:01:48.443Z,100617.38
2023-03-02T12:02:59.413Z,100609.67
2023-03-02T12:04:13.479Z,100611.08
2023-03-02T12:05:25.278Z,100597.95
2023-03-02T12:06:32.138Z,100615.23
2023-03-02T12:07:37.869Z,100598.16
2023-03-02T12:08:42.584Z,100602.05
2023-03-02T12:09:47.907Z,100601.33
2023-03-02T12:11:01.848Z,100605.22
2023-03-02T12:12:13.922Z,100600.59
2023-03-02T12:13:30.269Z,100601.62
2023-03-02T12:14:39.651Z,100597.64
2023-03-02T12:15:46.000Z,100603.21
2023-03-02T12:16:49.197Z,100591.06
2023-03-02T12:17:51.841Z,100600.34
2023-03-02T12:18:55.210Z,100596.50
2023-03-02T12:20:08.959Z,100593.84
2023-03-02T12:21:14.347Z,100598.12
2023-03-02T12:22:29.434Z,100588.41
2023-03-02T12:23:34.727Z,100599.02
2023-03-02T12:24:40.005Z,100594.13
2023-03-02T12:25:45.906Z,100595.38
2023-03-02T12:26:49.316Z,100595.69